sensor_id;sensor_type;location;lat;lon;timestamp;P1;durP1;ratioP1;P2;durP2;ratioP2
43706;SDS011;61348;53.392;-6.248;2023-08-31T00:01:32;4.40;;;1.77;;
43706;SDS011;61348;53.392;-6.248;2023-08-31T00:04:00;2.35;;;1.30;;
43706;SDS011;61348;53.392;-6.248;2023-08-31T00:06:27;2.67;;;1.40;;
43706;SDS011;61348;53.392;-6.248;2023-08-31T00:08:55;5.53;;;1.70;;
43706;SDS011;61348;53.392;-6.248;2023-08-31T00:11:22;7.43;;;3.15;;
43706;SDS011;61348;53.392;-6.248;2023-08-31T00:13:50;2.05;;;1.20;;
43706;SDS011;61348;53.392;-6.248;2023-08-31T00:16:20;3.53;;;1.38;;
43706;SDS011;61348;53.392;-6.248;2023-08-31T00:18:53;3.75;;;1.30;;
43706;SDS011;61348;53.392;-6.248;2023-08-31T00:21:23;4.45;;;1.38;;
43706;SDS011;61348;53.392;-6.248;2023-08-31T00:23:50;3.40;;;2.15;;
43706;SDS011;61348;53.392;-6.248;2023-08-31T00:26:18;3.60;;;1.70;;
43706;SDS011;61348;53.392;-6.248;2023-08-31T00:28:46;4.60;;;1.80;;
43706;SDS011;61348;53.392;-6.248;2023-08-31T00:31:14;6.32;;;1.92;;
43706;SDS011;61348;53.392;-6.248;2023-08-31T00:33:41;7.53;;;1.70;;
43706;SDS011;61348;53.392;-6.248;2023-08-31T00:36:08;2.60;;;1.60;;
43706;SDS011;61348;53.392;-6.248;2023-08-31T00:38:35;5.13;;;1.90;;
43706;SDS011;61348;53.392;-6.248;2023-08-31T00:41:02;7.57;;;1.90;;
43706;SDS011;61348;53.392;-6.248;2023-08-31T00:43:30;3.22;;;1.52;;
43706;SDS011;61348;53.392;-6.248;2023-08-31T00:45:58;5.07;;;1.70;;
43706;SDS011;61348;53.392;-6.248;2023-08-31T00:48:26;4.43;;;1.60;;
43706;SDS011;61348;53.392;-6.248;2023-08-31T00:50:53;5.00;;;2.08;;
43706;SDS011;61348;53.392;-6.248;2023-08-31T00:53:21;2.50;;;1.50;;
43706;SDS011;61348;53.392;-6.248;2023-08-31T00:55:49;3.75;;;1.60;;
43706;SDS011;61348;53.392;-6.248;2023-08-31T00:58:17;2.78;;;1.40;;
43706;SDS011;61348;53.392;-6.248;2023-08-31T01:01:03;5.38;;;1.70;;
43706;SDS011;61348;53.392;-6.248;2023-08-31T01:03:53;4.72;;;1.88;;
43706;SDS011;61348;53.392;-6.248;2023-08-31T01:09:36;2.45;;;1.92;;
43706;SDS011;61348;53.392;-6.248;2023-08-31T01:15:14;3.97;;;1.80;;
43706;SDS011;61348;53.392;-6.248;2023-08-31T01:17:39;4.10;;;1.55;;
43706;SDS011;61348;53.392;-6.248;2023-08-31T01:20:11;4.07;;;1.23;;
43706;SDS011;61348;53.392;-6.248;2023-08-31T01:22:48;2.72;;;1.20;;
43706;SDS011;61348;53.392;-6.248;2023-08-31T01:25:22;1.35;;;1.15;;
43706;SDS011;61348;53.392;-6.248;2023-08-31T01:27:50;3.50;;;1.40;;
43706;SDS011;61348;53.392;-6.248;2023-08-31T01:30:18;1.13;;;0.70;;
43706;SDS011;61348;53.392;-6.248;2023-08-31T01:32:45;3.40;;;1.15;;
43706;SDS011;61348;53.392;-6.248;2023-08-31T01:35:13;1.73;;;0.88;;
43706;SDS011;61348;53.392;-6.248;2023-08-31T01:37:47;2.08;;;0.98;;
43706;SDS011;61348;53.392;-6.248;2023-08-31T01:43:10;1.75;;;0.95;;
43706;SDS011;61348;53.392;-6.248;2023-08-31T01:45:39;4.30;;;0.80;;
43706;SDS011;61348;53.392;-6.248;2023-08-31T01:48:08;3.38;;;0.80;;
43706;SDS011;61348;53.392;-6.248;2023-08-31T01:50:36;1.80;;;0.98;;
43706;SDS011;61348;53.392;-6.248;2023-08-31T01:53:03;2.53;;;0.85;;
43706;SDS011;61348;53.392;-6.248;2023-08-31T01:55:33;0.93;;;0.63;;
43706;SDS011;61348;53.392;-6.248;2023-08-31T01:58:00;2.28;;;0.80;;
43706;SDS011;61348;53.392;-6.248;2023-08-31T02:00:28;1.27;;;0.60;;
43706;SDS011;61348;53.392;-6.248;2023-08-31T02:02:55;4.70;;;1.08;;
43706;SDS011;61348;53.392;-6.248;2023-08-31T02:05:23;2.78;;;0.77;;
43706;SDS011;61348;53.392;-6.248;2023-08-31T02:07:51;2.10;;;1.10;;
43706;SDS011;61348;53.392;-6.248;2023-08-31T02:10:20;2.88;;;0.95;;
43706;SDS011;61348;53.392;-6.248;2023-08-31T02:12:48;2.30;;;0.90;;
43706;SDS011;61348;53.392;-6.248;2023-08-31T02:15:14;1.30;;;1.20;;
43706;SDS011;61348;53.392;-6.248;2023-08-31T02:17:41;2.03;;;0.63;;
43706;SDS011;61348;53.392;-6.248;2023-08-31T02:20:10;1.63;;;0.57;;
43706;SDS011;61348;53.392;-6.248;2023-08-31T02:22:38;2.92;;;0.80;;
43706;SDS011;61348;53.392;-6.248;2023-08-31T02:25:05;2.15;;;0.88;;
43706;SDS011;61348;53.392;-6.248;2023-08-31T02:27:32;1.13;;;0.75;;
43706;SDS011;61348;53.392;-6.248;2023-08-31T02:30:00;1.58;;;0.88;;
43706;SDS011;61348;53.392;-6.248;2023-08-31T02:32:27;1.42;;;1.13;;
43706;SDS011;61348;53.392;-6.248;2023-08-31T02:34:54;0.75;;;0.35;;
43706;SDS011;61348;53.392;-6.248;2023-08-31T02:37:21;3.95;;;0.75;;
43706;SDS011;61348;53.392;-6.248;2023-08-31T02:39:48;1.58;;;0.88;;
43706;SDS011;61348;53.392;-6.248;2023-08-31T02:42:16;3.75;;;0.80;;
43706;SDS011;61348;53.392;-6.248;2023-08-31T02:44:43;1.27;;;0.80;;
43706;SDS011;61348;53.392;-6.248;2023-08-31T02:47:11;2.40;;;0.82;;
43706;SDS011;61348;53.392;-6.248;2023-08-31T02:49:38;2.15;;;0.68;;
43706;SDS011;61348;53.392;-6.248;2023-08-31T02:52:07;2.78;;;0.75;;
43706;SDS011;61348;53.392;-6.248;2023-08-31T02:54:35;0.85;;;0.75;;
43706;SDS011;61348;53.392;-6.248;2023-08-31T02:57:02;2.72;;;1.90;;
43706;SDS011;61348;53.392;-6.248;2023-08-31T02:59:29;1.33;;;0.77;;
43706;SDS011;61348;53.392;-6.248;2023-08-31T03:01:56;2.40;;;1.00;;
43706;SDS011;61348;53.392;-6.248;2023-08-31T03:04:24;5.90;;;1.25;;
43706;SDS011;61348;53.392;-6.248;2023-08-31T03:06:51;5.07;;;1.10;;
43706;SDS011;61348;53.392;-6.248;2023-08-31T03:09:18;3.95;;;1.20;;
43706;SDS011;61348;53.392;-6.248;2023-08-31T03:11:47;4.20;;;0.73;;
43706;SDS011;61348;53.392;-6.248;2023-08-31T03:14:14;2.53;;;0.65;;
43706;SDS011;61348;53.392;-6.248;2023-08-31T03:16:41;3.80;;;1.27;;
43706;SDS011;61348;53.392;-6.248;2023-08-31T03:19:08;6.05;;;1.42;;
43706;SDS011;61348;53.392;-6.248;2023-08-31T03:21:36;1.92;;;1.05;;
43706;SDS011;61348;53.392;-6.248;2023-08-31T03:24:03;4.30;;;0.90;;
43706;SDS011;61348;53.392;-6.248;2023-08-31T03:26:33;2.33;;;1.08;;
43706;SDS011;61348;53.392;-6.248;2023-08-31T03:29:00;2.33;;;0.85;;
43706;SDS011;61348;53.392;-6.248;2023-08-31T03:31:29;1.92;;;1.00;;
43706;SDS011;61348;53.392;-6.248;2023-08-31T03:33:57;3.33;;;1.40;;
43706;SDS011;61348;53.392;-6.248;2023-08-31T03:36:24;3.13;;;1.10;;
43706;SDS011;61348;53.392;-6.248;2023-08-31T03:38:52;1.92;;;1.10;;
43706;SDS011;61348;53.392;-6.248;2023-08-31T03:41:20;3.35;;;0.98;;
43706;SDS011;61348;53.392;-6.248;2023-08-31T03:43:48;4.63;;;1.27;;
43706;SDS011;61348;53.392;-6.248;2023-08-31T03:46:15;2.40;;;1.33;;
43706;SDS011;61348;53.392;-6.248;2023-08-31T03:48:42;1.70;;;1.20;;
43706;SDS011;61348;53.392;-6.248;2023-08-31T03:51:10;2.75;;;1.13;;
43706;SDS011;61348;53.392;-6.248;2023-08-31T03:53:37;3.28;;;1.48;;
43706;SDS011;61348;53.392;-6.248;2023-08-31T03:56:04;6.47;;;0.93;;
43706;SDS011;61348;53.392;-6.248;2023-08-31T03:58:31;1.52;;;1.10;;
43706;SDS011;61348;53.392;-6.248;2023-08-31T04:00:58;3.05;;;1.13;;
43706;SDS011;61348;53.392;-6.248;2023-08-31T04:03:26;2.95;;;1.05;;
43706;SDS011;61348;53.392;-6.248;2023-08-31T04:05:56;3.70;;;1.20;;
43706;SDS011;61348;53.392;-6.248;2023-08-31T04:08:23;2.58;;;0.65;;
43706;SDS011;61348;53.392;-6.248;2023-08-31T04:10:50;1.80;;;0.60;;
43706;SDS011;61348;53.392;-6.248;2023-08-31T04:13:18;7.80;;;1.05;;
43706;SDS011;61348;53.392;-6.248;2023-08-31T04:15:45;4.07;;;1.23;;
43706;SDS011;61348;53.392;-6.248;2023-08-31T04:18:12;4.78;;;2.83;;
43706;SDS011;61348;53.392;-6.248;2023-08-31T04:20:48;4.22;;;1.30;;
43706;SDS011;61348;53.392;-6.248;2023-08-31T04:23:18;4.68;;;0.88;;
43706;SDS011;61348;53.392;-6.248;2023-08-31T04:25:46;2.47;;;0.98;;
43706;SDS011;61348;53.392;-6.248;2023-08-31T04:28:14;10.00;;;1.65;;
43706;SDS011;61348;53.392;-6.248;2023-08-31T04:30:41;2.85;;;1.55;;
43706;SDS011;61348;53.392;-6.248;2023-08-31T04:33:08;4.78;;;1.05;;
43706;SDS011;61348;53.392;-6.248;2023-08-31T04:35:36;3.95;;;1.27;;
43706;SDS011;61348;53.392;-6.248;2023-08-31T04:38:03;3.78;;;1.10;;
43706;SDS011;61348;53.392;-6.248;2023-08-31T04:40:30;3.10;;;0.95;;
43706;SDS011;61348;53.392;-6.248;2023-08-31T04:42:57;1.13;;;0.82;;
43706;SDS011;61348;53.392;-6.248;2023-08-31T04:45:24;3.50;;;1.17;;
43706;SDS011;61348;53.392;-6.248;2023-08-31T04:47:51;3.25;;;1.00;;
43706;SDS011;61348;53.392;-6.248;2023-08-31T04:50:18;2.95;;;1.13;;
43706;SDS011;61348;53.392;-6.248;2023-08-31T04:52:45;5.15;;;1.17;;
43706;SDS011;61348;53.392;-6.248;2023-08-31T04:55:12;2.38;;;1.10;;
43706;SDS011;61348;53.392;-6.248;2023-08-31T04:57:40;4.50;;;1.25;;
43706;SDS011;61348;53.392;-6.248;2023-08-31T05:00:07;3.78;;;1.20;;
43706;SDS011;61348;53.392;-6.248;2023-08-31T05:02:38;3.20;;;0.80;;
43706;SDS011;61348;53.392;-6.248;2023-08-31T05:05:06;4.63;;;1.33;;
43706;SDS011;61348;53.392;-6.248;2023-08-31T05:07:33;3.20;;;0.98;;
43706;SDS011;61348;53.392;-6.248;2023-08-31T05:10:00;2.45;;;1.00;;
43706;SDS011;61348;53.392;-6.248;2023-08-31T05:12:27;2.80;;;1.13;;
43706;SDS011;61348;53.392;-6.248;2023-08-31T05:14:54;6.72;;;1.42;;
43706;SDS011;61348;53.392;-6.248;2023-08-31T05:17:21;3.15;;;1.52;;
43706;SDS011;61348;53.392;-6.248;2023-08-31T05:19:48;4.05;;;1.05;;
43706;SDS011;61348;53.392;-6.248;2023-08-31T05:22:16;6.47;;;1.30;;
43706;SDS011;61348;53.392;-6.248;2023-08-31T05:24:44;3.50;;;1.35;;
43706;SDS011;61348;53.392;-6.248;2023-08-31T05:27:11;5.75;;;3.08;;
43706;SDS011;61348;53.392;-6.248;2023-08-31T05:29:38;4.65;;;1.60;;
43706;SDS011;61348;53.392;-6.248;2023-08-31T05:32:05;5.60;;;1.52;;
43706;SDS011;61348;53.392;-6.248;2023-08-31T05:34:32;4.90;;;2.10;;
43706;SDS011;61348;53.392;-6.248;2023-08-31T05:37:04;5.90;;;1.67;;
43706;SDS011;61348;53.392;-6.248;2023-08-31T05:39:31;2.65;;;1.00;;
43706;SDS011;61348;53.392;-6.248;2023-08-31T05:41:58;3.50;;;1.20;;
43706;SDS011;61348;53.392;-6.248;2023-08-31T05:44:26;4.45;;;1.10;;
43706;SDS011;61348;53.392;-6.248;2023-08-31T05:46:53;4.75;;;1.30;;
43706;SDS011;61348;53.392;-6.248;2023-08-31T05:49:20;3.00;;;1.10;;
43706;SDS011;61348;53.392;-6.248;2023-08-31T05:51:46;4.82;;;1.10;;
43706;SDS011;61348;53.392;-6.248;2023-08-31T05:54:13;3.55;;;0.95;;
43706;SDS011;61348;53.392;-6.248;2023-08-31T05:56:40;3.50;;;0.75;;
43706;SDS011;61348;53.392;-6.248;2023-08-31T05:59:07;2.25;;;0.98;;
43706;SDS011;61348;53.392;-6.248;2023-08-31T06:01:35;3.80;;;1.30;;
43706;SDS011;61348;53.392;-6.248;2023-08-31T06:04:03;4.38;;;1.05;;
43706;SDS011;61348;53.392;-6.248;2023-08-31T06:06:30;8.23;;;1.13;;
43706;SDS011;61348;53.392;-6.248;2023-08-31T06:08:59;2.47;;;0.90;;
43706;SDS011;61348;53.392;-6.248;2023-08-31T06:11:25;2.03;;;0.88;;
43706;SDS011;61348;53.392;-6.248;2023-08-31T06:13:52;6.22;;;1.23;;
43706;SDS011;61348;53.392;-6.248;2023-08-31T06:16:19;4.35;;;1.00;;
43706;SDS011;61348;53.392;-6.248;2023-08-31T06:18:47;1.88;;;0.55;;
43706;SDS011;61348;53.392;-6.248;2023-08-31T06:21:15;3.60;;;0.82;;
43706;SDS011;61348;53.392;-6.248;2023-08-31T06:23:42;1.70;;;0.90;;
43706;SDS011;61348;53.392;-6.248;2023-08-31T06:26:08;2.53;;;0.70;;
43706;SDS011;61348;53.392;-6.248;2023-08-31T06:28:35;0.60;;;0.60;;
43706;SDS011;61348;53.392;-6.248;2023-08-31T06:31:02;2.58;;;0.68;;
43706;SDS011;61348;53.392;-6.248;2023-08-31T06:33:30;7.72;;;0.73;;
43706;SDS011;61348;53.392;-6.248;2023-08-31T06:35:57;0.70;;;0.60;;
43706;SDS011;61348;53.392;-6.248;2023-08-31T06:38:24;4.07;;;0.82;;
43706;SDS011;61348;53.392;-6.248;2023-08-31T06:40:52;1.30;;;0.65;;
43706;SDS011;61348;53.392;-6.248;2023-08-31T06:43:25;1.25;;;0.47;;
43706;SDS011;61348;53.392;-6.248;2023-08-31T06:45:55;3.75;;;2.55;;
43706;SDS011;61348;53.392;-6.248;2023-08-31T06:48:32;2.85;;;0.60;;
43706;SDS011;61348;53.392;-6.248;2023-08-31T06:50:59;0.63;;;0.63;;
43706;SDS011;61348;53.392;-6.248;2023-08-31T06:53:26;1.20;;;0.68;;
43706;SDS011;61348;53.392;-6.248;2023-08-31T06:55:54;2.78;;;0.60;;
43706;SDS011;61348;53.392;-6.248;2023-08-31T06:58:21;0.80;;;0.40;;
43706;SDS011;61348;53.392;-6.248;2023-08-31T07:00:48;2.40;;;0.50;;
43706;SDS011;61348;53.392;-6.248;2023-08-31T07:03:15;0.70;;;0.32;;
43706;SDS011;61348;53.392;-6.248;2023-08-31T07:05:43;0.75;;;0.38;;
43706;SDS011;61348;53.392;-6.248;2023-08-31T07:08:10;1.98;;;0.40;;
43706;SDS011;61348;53.392;-6.248;2023-08-31T07:10:37;2.83;;;0.70;;
43706;SDS011;61348;53.392;-6.248;2023-08-31T07:13:04;1.55;;;0.35;;
43706;SDS011;61348;53.392;-6.248;2023-08-31T07:15:31;2.08;;;0.60;;
43706;SDS011;61348;53.392;-6.248;2023-08-31T07:17:58;0.30;;;0.30;;
43706;SDS011;61348;53.392;-6.248;2023-08-31T07:20:25;0.82;;;0.45;;
43706;SDS011;61348;53.392;-6.248;2023-08-31T07:22:52;0.73;;;0.40;;
43706;SDS011;61348;53.392;-6.248;2023-08-31T07:25:19;1.48;;;0.50;;
43706;SDS011;61348;53.392;-6.248;2023-08-31T07:27:46;0.95;;;0.60;;
43706;SDS011;61348;53.392;-6.248;2023-08-31T07:30:13;0.82;;;0.68;;
43706;SDS011;61348;53.392;-6.248;2023-08-31T07:32:40;2.55;;;1.40;;
43706;SDS011;61348;53.392;-6.248;2023-08-31T07:35:07;1.08;;;0.70;;
43706;SDS011;61348;53.392;-6.248;2023-08-31T07:37:34;5.70;;;0.80;;
43706;SDS011;61348;53.392;-6.248;2023-08-31T07:40:02;0.57;;;0.43;;
43706;SDS011;61348;53.392;-6.248;2023-08-31T07:42:28;1.75;;;0.43;;
43706;SDS011;61348;53.392;-6.248;2023-08-31T07:44:56;0.88;;;0.40;;
43706;SDS011;61348;53.392;-6.248;2023-08-31T07:47:22;2.13;;;0.65;;
43706;SDS011;61348;53.392;-6.248;2023-08-31T07:49:49;1.50;;;0.50;;
43706;SDS011;61348;53.392;-6.248;2023-08-31T07:52:16;1.05;;;0.50;;
43706;SDS011;61348;53.392;-6.248;2023-08-31T07:54:43;1.15;;;0.70;;
43706;SDS011;61348;53.392;-6.248;2023-08-31T07:57:10;1.20;;;0.47;;
43706;SDS011;61348;53.392;-6.248;2023-08-31T07:59:37;3.47;;;0.80;;
43706;SDS011;61348;53.392;-6.248;2023-08-31T08:02:06;2.92;;;0.70;;
43706;SDS011;61348;53.392;-6.248;2023-08-31T08:04:33;2.08;;;0.52;;
43706;SDS011;61348;53.392;-6.248;2023-08-31T08:07:00;2.47;;;0.52;;
43706;SDS011;61348;53.392;-6.248;2023-08-31T08:09:27;2.13;;;0.60;;
43706;SDS011;61348;53.392;-6.248;2023-08-31T08:11:55;2.38;;;0.82;;
43706;SDS011;61348;53.392;-6.248;2023-08-31T08:14:22;2.15;;;0.93;;
43706;SDS011;61348;53.392;-6.248;2023-08-31T08:16:49;2.00;;;0.68;;
43706;SDS011;61348;53.392;-6.248;2023-08-31T08:19:25;1.27;;;0.85;;
43706;SDS011;61348;53.392;-6.248;2023-08-31T08:21:51;2.33;;;0.80;;
43706;SDS011;61348;53.392;-6.248;2023-08-31T08:24:18;4.25;;;0.88;;
43706;SDS011;61348;53.392;-6.248;2023-08-31T08:26:46;2.55;;;1.05;;
43706;SDS011;61348;53.392;-6.248;2023-08-31T08:29:13;2.58;;;1.00;;
43706;SDS011;61348;53.392;-6.248;2023-08-31T08:31:39;1.63;;;0.68;;
43706;SDS011;61348;53.392;-6.248;2023-08-31T08:34:06;1.50;;;0.50;;
43706;SDS011;61348;53.392;-6.248;2023-08-31T08:36:33;3.30;;;0.68;;
43706;SDS011;61348;53.392;-6.248;2023-08-31T08:39:00;0.47;;;0.40;;
43706;SDS011;61348;53.392;-6.248;2023-08-31T08:41:31;1.52;;;0.40;;
43706;SDS011;61348;53.392;-6.248;2023-08-31T08:44:01;1.70;;;0.50;;
43706;SDS011;61348;53.392;-6.248;2023-08-31T08:46:30;1.35;;;0.22;;
43706;SDS011;61348;53.392;-6.248;2023-08-31T08:48:59;0.80;;;0.40;;
43706;SDS011;61348;53.392;-6.248;2023-08-31T08:51:29;0.85;;;0.30;;
43706;SDS011;61348;53.392;-6.248;2023-08-31T08:53:59;1.02;;;0.20;;
43706;SDS011;61348;53.392;-6.248;2023-08-31T08:56:26;1.27;;;0.85;;
43706;SDS011;61348;53.392;-6.248;2023-08-31T08:58:53;1.42;;;0.40;;
43706;SDS011;61348;53.392;-6.248;2023-08-31T09:01:21;1.73;;;0.30;;
43706;SDS011;61348;53.392;-6.248;2023-08-31T09:03:49;1.98;;;0.50;;
43706;SDS011;61348;53.392;-6.248;2023-08-31T09:06:17;1.40;;;0.30;;
43706;SDS011;61348;53.392;-6.248;2023-08-31T09:08:44;0.20;;;0.20;;
43706;SDS011;61348;53.392;-6.248;2023-08-31T09:11:20;0.47;;;0.25;;
43706;SDS011;61348;53.392;-6.248;2023-08-31T09:13:51;0.93;;;0.50;;
43706;SDS011;61348;53.392;-6.248;2023-08-31T09:16:25;1.38;;;0.50;;
43706;SDS011;61348;53.392;-6.248;2023-08-31T09:18:58;1.08;;;0.55;;
43706;SDS011;61348;53.392;-6.248;2023-08-31T09:21:35;2.33;;;0.43;;
43706;SDS011;61348;53.392;-6.248;2023-08-31T09:24:06;1.95;;;0.47;;
43706;SDS011;61348;53.392;-6.248;2023-08-31T09:26:43;1.98;;;0.93;;
43706;SDS011;61348;53.392;-6.248;2023-08-31T09:29:11;2.63;;;0.40;;
43706;SDS011;61348;53.392;-6.248;2023-08-31T09:31:45;2.78;;;0.88;;
43706;SDS011;61348;53.392;-6.248;2023-08-31T09:34:17;0.50;;;0.50;;
43706;SDS011;61348;53.392;-6.248;2023-08-31T09:36:45;1.85;;;0.47;;
43706;SDS011;61348;53.392;-6.248;2023-08-31T09:39:13;0.50;;;0.50;;
43706;SDS011;61348;53.392;-6.248;2023-08-31T09:41:53;2.10;;;0.55;;
43706;SDS011;61348;53.392;-6.248;2023-08-31T09:44:21;2.17;;;0.82;;
43706;SDS011;61348;53.392;-6.248;2023-08-31T09:46:49;2.03;;;0.75;;
43706;SDS011;61348;53.392;-6.248;2023-08-31T09:49:16;2.53;;;2.10;;
43706;SDS011;61348;53.392;-6.248;2023-08-31T09:51:44;5.95;;;1.15;;
43706;SDS011;61348;53.392;-6.248;2023-08-31T09:54:13;1.75;;;0.60;;
43706;SDS011;61348;53.392;-6.248;2023-08-31T09:56:42;2.53;;;1.00;;
43706;SDS011;61348;53.392;-6.248;2023-08-31T09:59:10;3.00;;;1.20;;
43706;SDS011;61348;53.392;-6.248;2023-08-31T10:01:44;2.50;;;0.88;;
43706;SDS011;61348;53.392;-6.248;2023-08-31T10:04:12;3.17;;;0.65;;
43706;SDS011;61348;53.392;-6.248;2023-08-31T10:06:40;1.20;;;0.68;;
43706;SDS011;61348;53.392;-6.248;2023-08-31T10:09:08;1.45;;;0.50;;
43706;SDS011;61348;53.392;-6.248;2023-08-31T10:11:38;8.38;;;0.50;;
43706;SDS011;61348;53.392;-6.248;2023-08-31T10:14:11;1.85;;;0.40;;
43706;SDS011;61348;53.392;-6.248;2023-08-31T10:16:39;0.57;;;0.45;;
43706;SDS011;61348;53.392;-6.248;2023-08-31T10:19:07;0.52;;;0.30;;
43706;SDS011;61348;53.392;-6.248;2023-08-31T10:21:34;1.50;;;0.47;;
43706;SDS011;61348;53.392;-6.248;2023-08-31T10:24:01;1.70;;;0.47;;
43706;SDS011;61348;53.392;-6.248;2023-08-31T10:26:30;3.60;;;0.88;;
43706;SDS011;61348;53.392;-6.248;2023-08-31T10:28:58;2.03;;;0.47;;
43706;SDS011;61348;53.392;-6.248;2023-08-31T10:31:30;1.85;;;0.63;;
43706;SDS011;61348;53.392;-6.248;2023-08-31T10:33:58;1.65;;;0.35;;
43706;SDS011;61348;53.392;-6.248;2023-08-31T10:39:17;0.45;;;0.40;;
43706;SDS011;61348;53.392;-6.248;2023-08-31T10:41:54;2.72;;;1.55;;
43706;SDS011;61348;53.392;-6.248;2023-08-31T10:44:23;2.47;;;0.82;;
43706;SDS011;61348;53.392;-6.248;2023-08-31T10:46:52;3.50;;;0.73;;
43706;SDS011;61348;53.392;-6.248;2023-08-31T10:49:20;6.22;;;0.60;;
43706;SDS011;61348;53.392;-6.248;2023-08-31T10:51:55;5.88;;;1.10;;
43706;SDS011;61348;53.392;-6.248;2023-08-31T10:59:27;1.15;;;0.70;;
43706;SDS011;61348;53.392;-6.248;2023-08-31T11:02:53;1.25;;;0.50;;
43706;SDS011;61348;53.392;-6.248;2023-08-31T11:05:14;3.90;;;1.10;;
43706;SDS011;61348;53.392;-6.248;2023-08-31T11:07:43;4.70;;;0.80;;
43706;SDS011;61348;53.392;-6.248;2023-08-31T11:12:55;2.47;;;0.93;;
43706;SDS011;61348;53.392;-6.248;2023-08-31T11:15:26;0.90;;;0.45;;
43706;SDS011;61348;53.392;-6.248;2023-08-31T11:17:54;4.97;;;0.90;;
43706;SDS011;61348;53.392;-6.248;2023-08-31T11:20:24;0.88;;;0.38;;
43706;SDS011;61348;53.392;-6.248;2023-08-31T11:22:55;4.10;;;0.70;;
43706;SDS011;61348;53.392;-6.248;2023-08-31T11:25:22;3.40;;;1.15;;
43706;SDS011;61348;53.392;-6.248;2023-08-31T11:30:21;1.42;;;0.50;;
43706;SDS011;61348;53.392;-6.248;2023-08-31T11:32:52;1.17;;;0.30;;
43706;SDS011;61348;53.392;-6.248;2023-08-31T11:35:21;0.75;;;0.50;;
43706;SDS011;61348;53.392;-6.248;2023-08-31T11:37:50;3.88;;;0.75;;
43706;SDS011;61348;53.392;-6.248;2023-08-31T11:40:18;8.95;;;1.65;;
43706;SDS011;61348;53.392;-6.248;2023-08-31T11:42:45;1.63;;;0.40;;
43706;SDS011;61348;53.392;-6.248;2023-08-31T11:45:15;3.22;;;0.50;;
43706;SDS011;61348;53.392;-6.248;2023-08-31T11:47:42;1.25;;;0.50;;
43706;SDS011;61348;53.392;-6.248;2023-08-31T11:50:11;3.58;;;0.60;;
43706;SDS011;61348;53.392;-6.248;2023-08-31T11:52:40;1.00;;;0.50;;
43706;SDS011;61348;53.392;-6.248;2023-08-31T11:55:10;1.80;;;0.75;;
43706;SDS011;61348;53.392;-6.248;2023-08-31T11:57:38;2.47;;;0.60;;
43706;SDS011;61348;53.392;-6.248;2023-08-31T12:00:06;1.52;;;0.63;;
43706;SDS011;61348;53.392;-6.248;2023-08-31T12:02:36;1.85;;;0.50;;
43706;SDS011;61348;53.392;-6.248;2023-08-31T12:05:03;1.75;;;0.57;;
43706;SDS011;61348;53.392;-6.248;2023-08-31T12:07:32;1.08;;;0.63;;
43706;SDS011;61348;53.392;-6.248;2023-08-31T12:10:05;1.42;;;0.63;;
43706;SDS011;61348;53.392;-6.248;2023-08-31T12:12:32;1.02;;;0.47;;
43706;SDS011;61348;53.392;-6.248;2023-08-31T12:15:01;4.90;;;0.63;;
43706;SDS011;61348;53.392;-6.248;2023-08-31T12:17:36;2.60;;;0.90;;
43706;SDS011;61348;53.392;-6.248;2023-08-31T12:20:06;0.60;;;0.43;;
43706;SDS011;61348;53.392;-6.248;2023-08-31T12:22:34;3.08;;;0.90;;
43706;SDS011;61348;53.392;-6.248;2023-08-31T12:25:01;2.78;;;0.43;;
43706;SDS011;61348;53.392;-6.248;2023-08-31T12:27:28;2.13;;;0.60;;
43706;SDS011;61348;53.392;-6.248;2023-08-31T12:29:59;1.92;;;0.47;;
43706;SDS011;61348;53.392;-6.248;2023-08-31T12:32:26;1.52;;;0.40;;
43706;SDS011;61348;53.392;-6.248;2023-08-31T12:34:53;2.80;;;0.50;;
43706;SDS011;61348;53.392;-6.248;2023-08-31T12:37:20;0.40;;;0.30;;
43706;SDS011;61348;53.392;-6.248;2023-08-31T12:39:47;0.82;;;0.38;;
43706;SDS011;61348;53.392;-6.248;2023-08-31T12:42:14;1.33;;;0.65;;
43706;SDS011;61348;53.392;-6.248;2023-08-31T12:44:49;3.22;;;1.20;;
43706;SDS011;61348;53.392;-6.248;2023-08-31T12:47:16;1.75;;;0.80;;
43706;SDS011;61348;53.392;-6.248;2023-08-31T12:49:43;0.98;;;0.70;;
43706;SDS011;61348;53.392;-6.248;2023-08-31T12:52:10;1.35;;;0.40;;
43706;SDS011;61348;53.392;-6.248;2023-08-31T12:54:36;2.10;;;0.75;;
43706;SDS011;61348;53.392;-6.248;2023-08-31T12:57:03;1.70;;;0.50;;
43706;SDS011;61348;53.392;-6.248;2023-08-31T12:59:31;1.20;;;0.50;;
43706;SDS011;61348;53.392;-6.248;2023-08-31T13:01:58;1.75;;;0.50;;
43706;SDS011;61348;53.392;-6.248;2023-08-31T13:04:26;4.03;;;1.10;;
43706;SDS011;61348;53.392;-6.248;2023-08-31T13:06:54;3.42;;;1.13;;
43706;SDS011;61348;53.392;-6.248;2023-08-31T13:09:21;1.25;;;0.43;;
43706;SDS011;61348;53.392;-6.248;2023-08-31T13:11:48;1.73;;;0.63;;
43706;SDS011;61348;53.392;-6.248;2023-08-31T13:14:15;1.77;;;0.73;;
43706;SDS011;61348;53.392;-6.248;2023-08-31T13:16:42;0.50;;;0.43;;
43706;SDS011;61348;53.392;-6.248;2023-08-31T13:19:09;1.98;;;0.68;;
43706;SDS011;61348;53.392;-6.248;2023-08-31T13:21:36;0.90;;;0.50;;
43706;SDS011;61348;53.392;-6.248;2023-08-31T13:24:04;2.72;;;0.85;;
43706;SDS011;61348;53.392;-6.248;2023-08-31T13:26:31;1.58;;;0.50;;
43706;SDS011;61348;53.392;-6.248;2023-08-31T13:28:58;2.00;;;0.43;;
43706;SDS011;61348;53.392;-6.248;2023-08-31T13:31:25;2.58;;;0.65;;
43706;SDS011;61348;53.392;-6.248;2023-08-31T13:33:52;3.30;;;0.50;;
43706;SDS011;61348;53.392;-6.248;2023-08-31T13:36:19;3.03;;;0.50;;
43706;SDS011;61348;53.392;-6.248;2023-08-31T13:38:46;2.60;;;0.63;;
43706;SDS011;61348;53.392;-6.248;2023-08-31T13:41:13;1.98;;;0.40;;
43706;SDS011;61348;53.392;-6.248;2023-08-31T13:43:39;1.80;;;0.50;;
43706;SDS011;61348;53.392;-6.248;2023-08-31T13:46:06;1.73;;;0.40;;
43706;SDS011;61348;53.392;-6.248;2023-08-31T13:48:33;1.65;;;0.65;;
43706;SDS011;61348;53.392;-6.248;2023-08-31T13:51:00;1.15;;;0.70;;
43706;SDS011;61348;53.392;-6.248;2023-08-31T13:53:27;2.30;;;0.55;;
43706;SDS011;61348;53.392;-6.248;2023-08-31T13:55:54;1.65;;;0.63;;
43706;SDS011;61348;53.392;-6.248;2023-08-31T13:58:21;1.10;;;0.85;;
43706;SDS011;61348;53.392;-6.248;2023-08-31T14:00:48;2.28;;;1.08;;
43706;SDS011;61348;53.392;-6.248;2023-08-31T14:03:15;2.92;;;1.10;;
43706;SDS011;61348;53.392;-6.248;2023-08-31T14:05:47;2.20;;;1.10;;
43706;SDS011;61348;53.392;-6.248;2023-08-31T14:08:14;2.95;;;1.40;;
43706;SDS011;61348;53.392;-6.248;2023-08-31T14:10:41;4.25;;;1.05;;
43706;SDS011;61348;53.392;-6.248;2023-08-31T14:13:09;4.15;;;1.50;;
43706;SDS011;61348;53.392;-6.248;2023-08-31T14:15:36;3.83;;;1.50;;
43706;SDS011;61348;53.392;-6.248;2023-08-31T14:18:05;5.50;;;1.50;;
43706;SDS011;61348;53.392;-6.248;2023-08-31T14:20:33;3.05;;;1.60;;
43706;SDS011;61348;53.392;-6.248;2023-08-31T14:23:00;2.35;;;0.98;;
43706;SDS011;61348;53.392;-6.248;2023-08-31T14:25:28;3.28;;;1.15;;
43706;SDS011;61348;53.392;-6.248;2023-08-31T14:27:55;4.63;;;1.45;;
43706;SDS011;61348;53.392;-6.248;2023-08-31T14:30:21;4.20;;;1.35;;
43706;SDS011;61348;53.392;-6.248;2023-08-31T14:32:48;2.15;;;1.17;;
43706;SDS011;61348;53.392;-6.248;2023-08-31T14:35:15;4.10;;;1.40;;
43706;SDS011;61348;53.392;-6.248;2023-08-31T14:37:42;3.53;;;1.23;;
43706;SDS011;61348;53.392;-6.248;2023-08-31T14:40:10;5.90;;;2.03;;
43706;SDS011;61348;53.392;-6.248;2023-08-31T14:42:37;2.53;;;1.10;;
43706;SDS011;61348;53.392;-6.248;2023-08-31T14:45:04;4.32;;;1.23;;
43706;SDS011;61348;53.392;-6.248;2023-08-31T14:47:32;3.25;;;1.30;;
43706;SDS011;61348;53.392;-6.248;2023-08-31T14:50:00;4.45;;;1.33;;
43706;SDS011;61348;53.392;-6.248;2023-08-31T14:52:26;5.88;;;1.75;;
43706;SDS011;61348;53.392;-6.248;2023-08-31T14:54:57;2.70;;;1.15;;
43706;SDS011;61348;53.392;-6.248;2023-08-31T14:57:24;3.35;;;1.00;;
43706;SDS011;61348;53.392;-6.248;2023-08-31T14:59:50;2.65;;;1.27;;
43706;SDS011;61348;53.392;-6.248;2023-08-31T15:02:20;5.45;;;1.45;;